Terminal Aerodrome Forecast
Issued by NWS

Home | Current Version | Previous Version | Text Only | Print | Product List | Glossary On
Versions: 1 2 3 4 5 6 7 8 9 10 11 12 13 14 15 16 17 18 19 20 21 22
000
FTUS43 KFGF 221400 AAA
TAFDVL
TAF AMD
KDVL 221411Z 2214/2312 08006KT 4SM BR OVC008
      TEMPO 2214/2216 OVC010
     FM221600 07006KT 2SM BR OVC007
     FM222300 04009KT 2SM -SN BR OVC005
     FM230800 01015KT 2SM -SN BR OVC007
      AMD LTD TO CLD VIS AND WIND=

USA.gov is the U.S. government's official web portal to all federal, state and local government web resources and services.